sensor_id;sensor_type;location;lat;lon;timestamp;pressure;altitude;pressure_sealevel;temperature;humidity
70103;BME280;57470;50.034;15.256;2022-11-11T00:01:43;100935.81;;;5.80;100.00
70103;BME280;57470;50.034;15.256;2022-11-11T00:04:08;100935.03;;;5.75;100.00
70103;BME280;57470;50.034;15.256;2022-11-11T00:06:33;100936.09;;;5.68;100.00
70103;BME280;57470;50.034;15.256;2022-11-11T00:08:59;100942.09;;;5.75;100.00
70103;BME280;57470;50.034;15.256;2022-11-11T00:11:24;100942.09;;;5.75;100.00
70103;BME280;57470;50.034;15.256;2022-11-11T00:13:50;100941.22;;;5.74;100.00
70103;BME280;57470;50.034;15.256;2022-11-11T00:16:17;100936.16;;;5.65;100.00
70103;BME280;57470;50.034;15.256;2022-11-11T00:18:43;100938.06;;;5.60;100.00
70103;BME280;57470;50.034;15.256;2022-11-11T00:21:28;100939.53;;;5.72;100.00
70103;BME280;57470;50.034;15.256;2022-11-11T00:24:24;100939.88;;;5.58;100.00
70103;BME280;57470;50.034;15.256;2022-11-11T00:27:11;100949.72;;;5.51;100.00
70103;BME280;57470;50.034;15.256;2022-11-11T00:29:37;100949.97;;;5.41;100.00
70103;BME280;57470;50.034;15.256;2022-11-11T00:32:04;100951.97;;;5.29;100.00
70103;BME280;57470;50.034;15.256;2022-11-11T00:34:49;100961.41;;;5.40;100.00
70103;BME280;57470;50.034;15.256;2022-11-11T00:37:34;100959.28;;;5.55;100.00
70103;BME280;57470;50.034;15.256;2022-11-11T00:40:00;100958.47;;;5.53;100.00
70103;BME280;57470;50.034;15.256;2022-11-11T00:42:25;100955.91;;;5.50;100.00
70103;BME280;57470;50.034;15.256;2022-11-11T00:44:51;100948.78;;;5.54;100.00
70103;BME280;57470;50.034;15.256;2022-11-11T00:47:16;100958.50;;;5.52;100.00
70103;BME280;57470;50.034;15.256;2022-11-11T00:50:01;100955.84;;;5.52;99.49
70103;BME280;57470;50.034;15.256;2022-11-11T00:52:45;100951.41;;;5.54;98.91
70103;BME280;57470;50.034;15.256;2022-11-11T00:55:11;100948.03;;;5.47;98.83
70103;BME280;57470;50.034;15.256;2022-11-11T00:57:37;100962.31;;;5.39;98.69
70103;BME280;57470;50.034;15.256;2022-11-11T01:00:03;100947.38;;;5.38;98.68
70103;BME280;57470;50.034;15.256;2022-11-11T01:02:28;100948.25;;;5.38;98.70
70103;BME280;57470;50.034;15.256;2022-11-11T01:04:53;100949.22;;;5.36;99.61
70103;BME280;57470;50.034;15.256;2022-11-11T01:07:19;100953.81;;;5.27;99.62
70103;BME280;57470;50.034;15.256;2022-11-11T01:09:44;100939.81;;;5.24;99.23
70103;BME280;57470;50.034;15.256;2022-11-11T01:12:10;100946.81;;;5.25;99.36
70103;BME280;57470;50.034;15.256;2022-11-11T01:14:36;100949.69;;;5.14;98.79
70103;BME280;57470;50.034;15.256;2022-11-11T01:17:01;100956.88;;;5.09;98.83
70103;BME280;57470;50.034;15.256;2022-11-11T01:19:29;100957.69;;;5.11;98.87
70103;BME280;57470;50.034;15.256;2022-11-11T01:21:54;100960.31;;;5.11;98.21
70103;BME280;57470;50.034;15.256;2022-11-11T01:24:20;100955.16;;;5.07;98.60
70103;BME280;57470;50.034;15.256;2022-11-11T01:26:45;100960.59;;;4.99;98.92
70103;BME280;57470;50.034;15.256;2022-11-11T01:29:10;100962.41;;;4.97;98.86
70103;BME280;57470;50.034;15.256;2022-11-11T01:31:36;100959.00;;;4.92;99.37
70103;BME280;57470;50.034;15.256;2022-11-11T01:34:01;100965.78;;;5.02;98.82
70103;BME280;57470;50.034;15.256;2022-11-11T01:36:27;100971.34;;;4.90;98.71
70103;BME280;57470;50.034;15.256;2022-11-11T01:38:55;100974.81;;;4.92;98.63
70103;BME280;57470;50.034;15.256;2022-11-11T01:41:23;100984.34;;;4.99;99.10
70103;BME280;57470;50.034;15.256;2022-11-11T01:47:04;100983.06;;;4.75;100.00
70103;BME280;57470;50.034;15.256;2022-11-11T01:52:20;100986.56;;;4.76;100.00
70103;BME280;57470;50.034;15.256;2022-11-11T01:54:53;100983.84;;;4.80;99.72
70103;BME280;57470;50.034;15.256;2022-11-11T01:57:52;100981.06;;;4.88;99.13
70103;BME280;57470;50.034;15.256;2022-11-11T02:00:20;100980.16;;;4.89;97.94
70103;BME280;57470;50.034;15.256;2022-11-11T02:03:05;100979.50;;;4.78;98.81
70103;BME280;57470;50.034;15.256;2022-11-11T02:05:31;100978.59;;;4.80;98.21
70103;BME280;57470;50.034;15.256;2022-11-11T02:08:10;100972.69;;;4.68;98.39
70103;BME280;57470;50.034;15.256;2022-11-11T02:10:37;100978.66;;;4.76;98.46
70103;BME280;57470;50.034;15.256;2022-11-11T02:13:08;100971.84;;;4.66;98.31
70103;BME280;57470;50.034;15.256;2022-11-11T02:15:55;100975.59;;;4.56;98.62
70103;BME280;57470;50.034;15.256;2022-11-11T02:18:20;100975.44;;;4.62;99.05
70103;BME280;57470;50.034;15.256;2022-11-11T02:20:46;100973.66;;;4.64;98.35
70103;BME280;57470;50.034;15.256;2022-11-11T02:23:17;100964.97;;;4.59;98.56
70103;BME280;57470;50.034;15.256;2022-11-11T02:25:47;100958.97;;;4.52;99.37
70103;BME280;57470;50.034;15.256;2022-11-11T02:28:15;100950.25;;;4.48;99.22
70103;BME280;57470;50.034;15.256;2022-11-11T02:30:41;100951.22;;;4.44;99.05
70103;BME280;57470;50.034;15.256;2022-11-11T02:33:07;100956.84;;;4.26;99.15
70103;BME280;57470;50.034;15.256;2022-11-11T02:35:38;100957.81;;;4.21;99.86
70103;BME280;57470;50.034;15.256;2022-11-11T02:38:06;100956.19;;;4.13;100.00
70103;BME280;57470;50.034;15.256;2022-11-11T02:40:43;100951.69;;;4.20;99.84
70103;BME280;57470;50.034;15.256;2022-11-11T02:43:29;100947.19;;;4.25;100.00
70103;BME280;57470;50.034;15.256;2022-11-11T02:45:56;100950.94;;;4.12;100.00
70103;BME280;57470;50.034;15.256;2022-11-11T02:48:23;100946.53;;;4.14;99.94
70103;BME280;57470;50.034;15.256;2022-11-11T02:50:50;100952.69;;;4.13;100.00
70103;BME280;57470;50.034;15.256;2022-11-11T02:53:17;100953.91;;;3.94;100.00
70103;BME280;57470;50.034;15.256;2022-11-11T02:55:43;100950.94;;;4.12;100.00
70103;BME280;57470;50.034;15.256;2022-11-11T02:58:10;100951.91;;;4.08;100.00
70103;BME280;57470;50.034;15.256;2022-11-11T03:00:37;100942.22;;;4.11;100.00
70103;BME280;57470;50.034;15.256;2022-11-11T03:03:03;100943.16;;;4.07;100.00
70103;BME280;57470;50.034;15.256;2022-11-11T03:05:30;100948.25;;;4.17;99.99
70103;BME280;57470;50.034;15.256;2022-11-11T03:07:56;100962.22;;;4.20;99.56
70103;BME280;57470;50.034;15.256;2022-11-11T03:10:22;100978.22;;;4.09;99.60
70103;BME280;57470;50.034;15.256;2022-11-11T03:12:47;100988.03;;;4.00;100.00
70103;BME280;57470;50.034;15.256;2022-11-11T03:15:13;100990.56;;;4.06;100.00
70103;BME280;57470;50.034;15.256;2022-11-11T03:17:38;100978.38;;;4.02;100.00
70103;BME280;57470;50.034;15.256;2022-11-11T03:20:09;100982.47;;;4.17;100.00
70103;BME280;57470;50.034;15.256;2022-11-11T03:23:01;100988.59;;;4.17;100.00
70103;BME280;57470;50.034;15.256;2022-11-11T03:25:27;100979.28;;;3.98;100.00
70103;BME280;57470;50.034;15.256;2022-11-11T03:28:12;100984.28;;;4.13;100.00
70103;BME280;57470;50.034;15.256;2022-11-11T03:30:39;100979.91;;;4.12;100.00
70103;BME280;57470;50.034;15.256;2022-11-11T03:33:06;100985.00;;;4.21;100.00
70103;BME280;57470;50.034;15.256;2022-11-11T03:35:31;100978.03;;;4.20;100.00
70103;BME280;57470;50.034;15.256;2022-11-11T03:37:57;100977.09;;;4.21;100.00
70103;BME280;57470;50.034;15.256;2022-11-11T03:40:48;100976.28;;;4.19;99.86
70103;BME280;57470;50.034;15.256;2022-11-11T03:43:15;100990.25;;;4.23;99.99
70103;BME280;57470;50.034;15.256;2022-11-11T03:45:43;100992.88;;;4.24;100.00
70103;BME280;57470;50.034;15.256;2022-11-11T03:48:09;100984.22;;;4.18;100.00
70103;BME280;57470;50.034;15.256;2022-11-11T03:50:34;100974.75;;;4.06;100.00
70103;BME280;57470;50.034;15.256;2022-11-11T03:53:00;100970.41;;;4.03;100.00
70103;BME280;57470;50.034;15.256;2022-11-11T03:55:25;100970.97;;;4.21;100.00
70103;BME280;57470;50.034;15.256;2022-11-11T03:57:51;100977.88;;;4.28;100.00
70103;BME280;57470;50.034;15.256;2022-11-11T04:00:22;100974.44;;;4.24;100.00
70103;BME280;57470;50.034;15.256;2022-11-11T04:02:48;100975.28;;;4.26;100.00
70103;BME280;57470;50.034;15.256;2022-11-11T04:05:32;100971.78;;;4.26;100.00
70103;BME280;57470;50.034;15.256;2022-11-11T04:08:17;100975.16;;;4.32;100.00
70103;BME280;57470;50.034;15.256;2022-11-11T04:11:08;100966.56;;;4.21;100.00
70103;BME280;57470;50.034;15.256;2022-11-11T04:13:37;100965.50;;;4.31;100.00
70103;BME280;57470;50.034;15.256;2022-11-11T04:16:21;100979.63;;;4.29;100.00
70103;BME280;57470;50.034;15.256;2022-11-11T04:18:46;100973.44;;;4.30;100.00
70103;BME280;57470;50.034;15.256;2022-11-11T04:21:30;100974.38;;;4.27;100.00
70103;BME280;57470;50.034;15.256;2022-11-11T04:24:19;100970.97;;;4.21;99.67
70103;BME280;57470;50.034;15.256;2022-11-11T04:27:08;100973.59;;;4.21;100.00
70103;BME280;57470;50.034;15.256;2022-11-11T04:29:34;100969.19;;;4.23;100.00
70103;BME280;57470;50.034;15.256;2022-11-11T04:32:01;100973.59;;;4.21;99.84
70103;BME280;57470;50.034;15.256;2022-11-11T04:34:53;100967.53;;;4.17;99.90
70103;BME280;57470;50.034;15.256;2022-11-11T04:37:20;100967.66;;;4.11;100.00
70103;BME280;57470;50.034;15.256;2022-11-11T04:39:47;100970.22;;;4.14;100.00
70103;BME280;57470;50.034;15.256;2022-11-11T04:42:32;100981.66;;;4.13;100.00
70103;BME280;57470;50.034;15.256;2022-11-11T04:44:58;100979.22;;;4.02;100.00
70103;BME280;57470;50.034;15.256;2022-11-11T04:50:17;100974.22;;;3.87;100.00
70103;BME280;57470;50.034;15.256;2022-11-11T04:52:43;100980.31;;;3.91;100.00
70103;BME280;57470;50.034;15.256;2022-11-11T04:55:08;100985.34;;;4.03;100.00
70103;BME280;57470;50.034;15.256;2022-11-11T04:57:52;100987.88;;;4.09;100.00
70103;BME280;57470;50.034;15.256;2022-11-11T05:00:18;100987.78;;;4.13;100.00
70103;BME280;57470;50.034;15.256;2022-11-11T05:02:43;100993.31;;;3.98;100.00
70103;BME280;57470;50.034;15.256;2022-11-11T05:05:28;100988.03;;;4.00;100.00
70103;BME280;57470;50.034;15.256;2022-11-11T05:08:14;101014.22;;;4.07;100.00
70103;BME280;57470;50.034;15.256;2022-11-11T05:10:58;101015.63;;;4.28;100.00
70103;BME280;57470;50.034;15.256;2022-11-11T05:13:24;101013.06;;;4.24;100.00
70103;BME280;57470;50.034;15.256;2022-11-11T05:16:15;101009.91;;;4.03;100.00
70103;BME280;57470;50.034;15.256;2022-11-11T05:18:59;101017.56;;;4.17;100.00
70103;BME280;57470;50.034;15.256;2022-11-11T05:21:43;101015.81;;;4.18;100.00
70103;BME280;57470;50.034;15.256;2022-11-11T05:24:09;101019.31;;;4.18;100.00
70103;BME280;57470;50.034;15.256;2022-11-11T05:26:53;101022.00;;;4.15;100.00
70103;BME280;57470;50.034;15.256;2022-11-11T05:29:18;101027.28;;;4.13;100.00
70103;BME280;57470;50.034;15.256;2022-11-11T05:31:43;101022.16;;;4.06;100.00
70103;BME280;57470;50.034;15.256;2022-11-11T05:34:09;101031.00;;;4.02;100.00
70103;BME280;57470;50.034;15.256;2022-11-11T05:36:34;101026.47;;;4.11;100.00
70103;BME280;57470;50.034;15.256;2022-11-11T05:38:59;101028.00;;;4.22;100.00
70103;BME280;57470;50.034;15.256;2022-11-11T05:41:25;101024.66;;;4.12;100.00
70103;BME280;57470;50.034;15.256;2022-11-11T05:43:50;101031.47;;;4.25;100.00
70103;BME280;57470;50.034;15.256;2022-11-11T05:46:15;101031.50;;;4.24;100.00
70103;BME280;57470;50.034;15.256;2022-11-11T05:48:41;101032.47;;;4.20;100.00
70103;BME280;57470;50.034;15.256;2022-11-11T05:51:26;101038.19;;;4.41;100.00
70103;BME280;57470;50.034;15.256;2022-11-11T05:53:55;101030.09;;;4.52;100.00
70103;BME280;57470;50.034;15.256;2022-11-11T05:56:21;101038.84;;;4.54;100.00
70103;BME280;57470;50.034;15.256;2022-11-11T05:58:46;101035.31;;;4.55;100.00
70103;BME280;57470;50.034;15.256;2022-11-11T06:01:12;101032.56;;;4.60;100.00
70103;BME280;57470;50.034;15.256;2022-11-11T06:03:37;101042.69;;;4.36;100.00
70103;BME280;57470;50.034;15.256;2022-11-11T06:06:02;101035.53;;;4.43;100.00
70103;BME280;57470;50.034;15.256;2022-11-11T06:08:28;101024.84;;;4.50;100.00
70103;BME280;57470;50.034;15.256;2022-11-11T06:10:53;101029.19;;;4.55;100.00
70103;BME280;57470;50.034;15.256;2022-11-11T06:13:18;101023.81;;;4.59;100.00
70103;BME280;57470;50.034;15.256;2022-11-11T06:15:44;101032.69;;;4.55;100.00
70103;BME280;57470;50.034;15.256;2022-11-11T06:18:09;101028.91;;;4.68;100.00
70103;BME280;57470;50.034;15.256;2022-11-11T06:20:35;101029.22;;;4.51;100.00
70103;BME280;57470;50.034;15.256;2022-11-11T06:23:01;101034.13;;;4.71;100.00
70103;BME280;57470;50.034;15.256;2022-11-11T06:25:29;101034.91;;;4.75;100.00
70103;BME280;57470;50.034;15.256;2022-11-11T06:28:13;101037.06;;;4.56;100.00
70103;BME280;57470;50.034;15.256;2022-11-11T06:30:39;101030.06;;;4.53;100.00
70103;BME280;57470;50.034;15.256;2022-11-11T06:33:04;101026.53;;;4.55;100.00
70103;BME280;57470;50.034;15.256;2022-11-11T06:35:33;101028.88;;;4.70;100.00
70103;BME280;57470;50.034;15.256;2022-11-11T06:37:59;101034.13;;;4.70;100.00
70103;BME280;57470;50.034;15.256;2022-11-11T06:40:25;101033.00;;;4.83;100.00
70103;BME280;57470;50.034;15.256;2022-11-11T06:42:50;101036.66;;;4.76;100.00
70103;BME280;57470;50.034;15.256;2022-11-11T06:45:16;101033.00;;;4.83;100.00
70103;BME280;57470;50.034;15.256;2022-11-11T06:47:42;101038.41;;;4.75;100.00
70103;BME280;57470;50.034;15.256;2022-11-11T06:50:07;101049.63;;;4.86;100.00
70103;BME280;57470;50.034;15.256;2022-11-11T06:52:33;101047.63;;;4.99;100.00
70103;BME280;57470;50.034;15.256;2022-11-11T06:54:58;101060.66;;;5.05;100.00
70103;BME280;57470;50.034;15.256;2022-11-11T06:57:23;101049.28;;;5.03;100.00
70103;BME280;57470;50.034;15.256;2022-11-11T06:59:49;101056.13;;;5.12;100.00
70103;BME280;57470;50.034;15.256;2022-11-11T07:02:14;101052.56;;;5.14;100.00
70103;BME280;57470;50.034;15.256;2022-11-11T07:04:40;101063.31;;;5.04;100.00
70103;BME280;57470;50.034;15.256;2022-11-11T07:07:05;101069.97;;;5.21;100.00
70103;BME280;57470;50.034;15.256;2022-11-11T07:09:30;101073.09;;;5.40;100.00
70103;BME280;57470;50.034;15.256;2022-11-11T07:11:56;101062.41;;;5.46;100.00
70103;BME280;57470;50.034;15.256;2022-11-11T07:14:21;101075.38;;;5.55;100.00
70103;BME280;57470;50.034;15.256;2022-11-11T07:16:47;101078.47;;;5.76;100.00
70103;BME280;57470;50.034;15.256;2022-11-11T07:19:12;101072.50;;;5.68;100.00
70103;BME280;57470;50.034;15.256;2022-11-11T07:21:38;101064.97;;;5.49;100.00
70103;BME280;57470;50.034;15.256;2022-11-11T07:24:03;101063.25;;;5.88;100.00
70103;BME280;57470;50.034;15.256;2022-11-11T07:26:28;101069.19;;;5.96;100.00
70103;BME280;57470;50.034;15.256;2022-11-11T07:28:54;101071.13;;;6.25;100.00
70103;BME280;57470;50.034;15.256;2022-11-11T07:31:20;101073.13;;;6.16;100.00
70103;BME280;57470;50.034;15.256;2022-11-11T07:33:45;101087.56;;;6.36;100.00
70103;BME280;57470;50.034;15.256;2022-11-11T07:36:11;101090.72;;;6.51;100.00
70103;BME280;57470;50.034;15.256;2022-11-11T07:38:36;101088.84;;;6.54;100.00
70103;BME280;57470;50.034;15.256;2022-11-11T07:41:02;101083.44;;;6.60;100.00
70103;BME280;57470;50.034;15.256;2022-11-11T07:43:27;101085.34;;;6.54;100.00
70103;BME280;57470;50.034;15.256;2022-11-11T07:45:52;101085.31;;;6.21;100.00
70103;BME280;57470;50.034;15.256;2022-11-11T07:48:18;101083.13;;;6.37;100.00
70103;BME280;57470;50.034;15.256;2022-11-11T07:50:43;101079.69;;;6.35;100.00
70103;BME280;57470;50.034;15.256;2022-11-11T07:53:08;101079.25;;;6.52;100.00
70103;BME280;57470;50.034;15.256;2022-11-11T07:55:34;101075.88;;;6.45;100.00
70103;BME280;57470;50.034;15.256;2022-11-11T07:58:00;101073.97;;;6.52;100.00
70103;BME280;57470;50.034;15.256;2022-11-11T08:00:26;101077.34;;;6.57;100.00
70103;BME280;57470;50.034;15.256;2022-11-11T08:02:52;101076.59;;;6.52;100.00
70103;BME280;57470;50.034;15.256;2022-11-11T08:05:17;101095.41;;;6.73;100.00
70103;BME280;57470;50.034;15.256;2022-11-11T08:07:42;101087.88;;;6.91;100.00
70103;BME280;57470;50.034;15.256;2022-11-11T08:10:09;101095.59;;;6.66;100.00
70103;BME280;57470;50.034;15.256;2022-11-11T08:12:35;101093.56;;;6.77;100.00
70103;BME280;57470;50.034;15.256;2022-11-11T08:15:19;101104.03;;;7.12;100.00
70103;BME280;57470;50.034;15.256;2022-11-11T08:17:44;101091.63;;;7.14;100.00
70103;BME280;57470;50.034;15.256;2022-11-11T08:20:10;101095.00;;;7.20;100.00
70103;BME280;57470;50.034;15.256;2022-11-11T08:22:37;101091.25;;;7.27;100.00
70103;BME280;57470;50.034;15.256;2022-11-11T08:25:08;101096.00;;;7.45;100.00
70103;BME280;57470;50.034;15.256;2022-11-11T08:27:35;101097.75;;;7.46;100.00
70103;BME280;57470;50.034;15.256;2022-11-11T08:30:02;101087.19;;;7.15;100.00
70103;BME280;57470;50.034;15.256;2022-11-11T08:32:27;101082.16;;;7.06;100.00
70103;BME280;57470;50.034;15.256;2022-11-11T08:34:53;101085.28;;;7.20;100.00
70103;BME280;57470;50.034;15.256;2022-11-11T08:37:18;101090.25;;;7.31;100.00
70103;BME280;57470;50.034;15.256;2022-11-11T08:39:43;101093.22;;;7.49;100.00
70103;BME280;57470;50.034;15.256;2022-11-11T08:42:09;101087.81;;;7.52;100.00
70103;BME280;57470;50.034;15.256;2022-11-11T08:44:34;101095.16;;;7.72;100.00
70103;BME280;57470;50.034;15.256;2022-11-11T08:46:59;101099.66;;;7.41;100.00
70103;BME280;57470;50.034;15.256;2022-11-11T08:49:25;101098.53;;;7.49;100.00
70103;BME280;57470;50.034;15.256;2022-11-11T08:51:50;101111.28;;;7.35;100.00
70103;BME280;57470;50.034;15.256;2022-11-11T08:54:16;101112.41;;;7.27;100.00
70103;BME280;57470;50.034;15.256;2022-11-11T08:56:41;101124.38;;;7.41;100.00
70103;BME280;57470;50.034;15.256;2022-11-11T08:59:08;101128.00;;;7.67;100.00
70103;BME280;57470;50.034;15.256;2022-11-11T09:01:34;101133.03;;;7.76;100.00
70103;BME280;57470;50.034;15.256;2022-11-11T09:04:00;101135.72;;;7.74;100.00
70103;BME280;57470;50.034;15.256;2022-11-11T09:06:27;101137.72;;;7.66;100.00
70103;BME280;57470;50.034;15.256;2022-11-11T09:08:52;101140.47;;;7.93;100.00
70103;BME280;57470;50.034;15.256;2022-11-11T09:11:18;101134.91;;;8.00;100.00
70103;BME280;57470;50.034;15.256;2022-11-11T09:13:45;101139.63;;;7.90;100.00
70103;BME280;57470;50.034;15.256;2022-11-11T09:16:11;101144.09;;;8.16;100.00
70103;BME280;57470;50.034;15.256;2022-11-11T09:18:36;101144.72;;;7.97;100.00
70103;BME280;57470;50.034;15.256;2022-11-11T09:21:02;101152.50;;;8.31;100.00
70103;BME280;57470;50.034;15.256;2022-11-11T09:23:27;101159.81;;;8.50;100.00
70103;BME280;57470;50.034;15.256;2022-11-11T09:25:53;101162.03;;;8.64;100.00
70103;BME280;57470;50.034;15.256;2022-11-11T09:28:18;101157.31;;;8.46;100.00
70103;BME280;57470;50.034;15.256;2022-11-11T09:30:44;101168.28;;;8.61;100.00
70103;BME280;57470;50.034;15.256;2022-11-11T09:33:09;101173.13;;;9.01;100.00
70103;BME280;57470;50.034;15.256;2022-11-11T09:35:36;101181.22;;;9.22;99.06
70103;BME280;57470;50.034;15.256;2022-11-11T09:38:02;101183.97;;;9.44;98.79
70103;BME280;57470;50.034;15.256;2022-11-11T09:41:17;101188.31;;;8.96;98.06
70103;BME280;57470;50.034;15.256;2022-11-11T09:46:38;101176.78;;;9.22;98.55
70103;BME280;57470;50.034;15.256;2022-11-11T09:51:45;101171.13;;;9.31;98.16
70103;BME280;57470;50.034;15.256;2022-11-11T09:54:16;101181.69;;;9.33;98.06
70103;BME280;57470;50.034;15.256;2022-11-11T09:56:44;101180.31;;;9.48;97.98
70103;BME280;57470;50.034;15.256;2022-11-11T09:59:24;101173.75;;;9.33;98.83
70103;BME280;57470;50.034;15.256;2022-11-11T10:01:55;101173.06;;;9.51;97.68
70103;BME280;57470;50.034;15.256;2022-11-11T10:04:50;101173.06;;;9.51;97.34
70103;BME280;57470;50.034;15.256;2022-11-11T10:07:37;101173.19;;;9.71;97.97
70103;BME280;57470;50.034;15.256;2022-11-11T10:10:15;101155.63;;;9.44;97.82
70103;BME280;57470;50.034;15.256;2022-11-11T10:12:46;101165.31;;;9.68;97.84
70103;BME280;57470;50.034;15.256;2022-11-11T10:15:14;101155.41;;;9.50;99.55
70103;BME280;57470;50.034;15.256;2022-11-11T10:20:38;101146.00;;;9.65;98.68
70103;BME280;57470;50.034;15.256;2022-11-11T10:23:16;101140.13;;;9.57;98.23
70103;BME280;57470;50.034;15.256;2022-11-11T10:25:55;101140.25;;;9.75;98.80
70103;BME280;57470;50.034;15.256;2022-11-11T10:28:25;101140.91;;;10.04;99.67
70103;BME280;57470;50.034;15.256;2022-11-11T10:30:52;101148.09;;;10.02;96.76
70103;BME280;57470;50.034;15.256;2022-11-11T10:34:02;101139.44;;;9.97;97.43
70103;BME280;57470;50.034;15.256;2022-11-11T10:36:29;101140.25;;;9.99;97.67
70103;BME280;57470;50.034;15.256;2022-11-11T10:39:01;101135.97;;;10.16;97.40
70103;BME280;57470;50.034;15.256;2022-11-11T10:41:33;101142.38;;;10.34;96.13
70103;BME280;57470;50.034;15.256;2022-11-11T10:44:17;101140.03;;;10.69;94.71
70103;BME280;57470;50.034;15.256;2022-11-11T10:50:15;101135.31;;;10.55;93.70
70103;BME280;57470;50.034;15.256;2022-11-11T10:52:59;101137.88;;;10.36;94.81
70103;BME280;57470;50.034;15.256;2022-11-11T10:55:51;101136.44;;;10.70;93.77
70103;BME280;57470;50.034;15.256;2022-11-11T10:58:39;101139.56;;;10.59;93.58
70103;BME280;57470;50.034;15.256;2022-11-11T11:01:07;101133.94;;;10.87;94.11
70103;BME280;57470;50.034;15.256;2022-11-11T11:03:38;101135.06;;;10.39;95.20
70103;BME280;57470;50.034;15.256;2022-11-11T11:08:44;101140.97;;;10.68;95.89
70103;BME280;57470;50.034;15.256;2022-11-11T11:11:29;101136.06;;;10.79;95.16
70103;BME280;57470;50.034;15.256;2022-11-11T11:14:01;101133.38;;;11.19;94.68
70103;BME280;57470;50.034;15.256;2022-11-11T11:16:32;101134.84;;;11.26;93.14
70103;BME280;57470;50.034;15.256;2022-11-11T11:22:10;101129.25;;;11.12;94.86
70103;BME280;57470;50.034;15.256;2022-11-11T11:24:36;101128.03;;;11.40;94.06
70103;BME280;57470;50.034;15.256;2022-11-11T11:27:05;101125.31;;;11.01;93.31
70103;BME280;57470;50.034;15.256;2022-11-11T11:29:37;101114.94;;;11.15;94.13
70103;BME280;57470;50.034;15.256;2022-11-11T11:32:20;101116.88;;;10.50;95.55
70103;BME280;57470;50.034;15.256;2022-11-11T11:34:50;101117.03;;;10.88;93.95
70103;BME280;57470;50.034;15.256;2022-11-11T11:37:17;101110.22;;;11.21;92.89
70103;BME280;57470;50.034;15.256;2022-11-11T11:39:43;101123.22;;;11.09;92.78
70103;BME280;57470;50.034;15.256;2022-11-11T11:42:33;101118.59;;;11.33;93.59
70103;BME280;57470;50.034;15.256;2022-11-11T11:50:35;101109.00;;;11.47;91.77
70103;BME280;57470;50.034;15.256;2022-11-11T11:53:30;101108.66;;;11.74;90.86
70103;BME280;57470;50.034;15.256;2022-11-11T11:59:01;101113.78;;;11.59;90.46
70103;BME280;57470;50.034;15.256;2022-11-11T12:01:51;101118.56;;;11.90;89.43
70103;BME280;57470;50.034;15.256;2022-11-11T12:12:50;101118.78;;;12.05;91.25
70103;BME280;57470;50.034;15.256;2022-11-11T12:15:32;101115.63;;;11.96;89.77
70103;BME280;57470;50.034;15.256;2022-11-11T12:20:40;101113.97;;;12.47;87.68
70103;BME280;57470;50.034;15.256;2022-11-11T12:26:27;101110.13;;;12.53;89.43
70103;BME280;57470;50.034;15.256;2022-11-11T12:45:46;101095.72;;;11.85;89.63
70103;BME280;57470;50.034;15.256;2022-11-11T12:50:49;101092.94;;;12.24;87.53
70103;BME280;57470;50.034;15.256;2022-11-11T12:56:18;101090.00;;;12.11;87.80
70103;BME280;57470;50.034;15.256;2022-11-11T12:58:58;101094.50;;;12.45;88.24
70103;BME280;57470;50.034;15.256;2022-11-11T13:01:45;101097.84;;;12.14;87.96
70103;BME280;57470;50.034;15.256;2022-11-11T13:07:32;101090.31;;;11.86;87.82
70103;BME280;57470;50.034;15.256;2022-11-11T13:13:35;101098.03;;;12.28;88.14
70103;BME280;57470;50.034;15.256;2022-11-11T13:16:02;101079.13;;;12.33;88.66
70103;BME280;57470;50.034;15.256;2022-11-11T13:21:45;101087.72;;;12.03;87.77
70103;BME280;57470;50.034;15.256;2022-11-11T13:24:15;101079.13;;;12.33;88.66
70103;BME280;57470;50.034;15.256;2022-11-11T13:26:47;101069.81;;;12.59;87.97
70103;BME280;57470;50.034;15.256;2022-11-11T13:32:00;101068.06;;;12.58;86.53
70103;BME280;57470;50.034;15.256;2022-11-11T13:34:30;101082.91;;;12.63;87.24
70103;BME280;57470;50.034;15.256;2022-11-11T13:37:02;101083.69;;;12.65;87.41
70103;BME280;57470;50.034;15.256;2022-11-11T13:39:39;101076.75;;;12.27;86.65
70103;BME280;57470;50.034;15.256;2022-11-11T13:42:10;101082.88;;;12.29;87.58
70103;BME280;57470;50.034;15.256;2022-11-11T13:44:53;101083.03;;;12.26;88.24
70103;BME280;57470;50.034;15.256;2022-11-11T13:47:43;101080.47;;;12.42;88.86
70103;BME280;57470;50.034;15.256;2022-11-11T13:50:31;101076.00;;;12.42;88.51
70103;BME280;57470;50.034;15.256;2022-11-11T13:53:01;101085.56;;;12.46;88.63
70103;BME280;57470;50.034;15.256;2022-11-11T13:55:44;101079.44;;;12.44;88.83
70103;BME280;57470;50.034;15.256;2022-11-11T13:58:22;101080.16;;;12.48;88.55
70103;BME280;57470;50.034;15.256;2022-11-11T14:00:58;101086.50;;;12.45;89.00
70103;BME280;57470;50.034;15.256;2022-11-11T14:13:57;101088.69;;;12.20;89.89
70103;BME280;57470;50.034;15.256;2022-11-11T14:21:55;101100.19;;;12.03;91.04
70103;BME280;57470;50.034;15.256;2022-11-11T14:24:22;101104.34;;;12.09;90.21
70103;BME280;57470;50.034;15.256;2022-11-11T14:27:00;101102.06;;;11.82;91.88
70103;BME280;57470;50.034;15.256;2022-11-11T14:29:30;101099.50;;;11.81;91.68
70103;BME280;57470;50.034;15.256;2022-11-11T14:37:31;101090.78;;;11.77;91.47
70103;BME280;57470;50.034;15.256;2022-11-11T14:40:00;101079.06;;;11.61;92.23
70103;BME280;57470;50.034;15.256;2022-11-11T14:45:01;101093.75;;;11.51;91.91
70103;BME280;57470;50.034;15.256;2022-11-11T14:47:33;101089.41;;;11.29;92.58
70103;BME280;57470;50.034;15.256;2022-11-11T14:50:00;101094.97;;;11.25;93.66